createdAt,value
2023-05-19T00:00:47.517Z,101921.78
2023-05-19T00:03:14.859Z,101917.00
2023-05-19T00:05:45.485Z,101922.38
2023-05-19T00:08:12.193Z,101919.63
2023-05-19T00:10:38.656Z,101921.28
2023-05-19T00:13:05.040Z,101923.81
2023-05-19T00:15:31.454Z,101924.00
2023-05-19T00:17:58.124Z,101920.03
2023-05-19T00:20:24.547Z,101918.41
2023-05-19T00:22:51.486Z,101918.16
2023-05-19T00:25:17.933Z,101919.16
2023-05-19T00:27:44.326Z,101920.09
2023-05-19T00:30:10.888Z,101915.13
2023-05-19T00:32:37.397Z,101915.66
2023-05-19T00:35:03.860Z,101913.91
2023-05-19T00:37:30.437Z,101917.22
2023-05-19T00:39:57.296Z,101916.53
2023-05-19T00:42:23.759Z,101910.16
2023-05-19T00:44:50.390Z,101911.25
2023-05-19T00:47:16.982Z,101910.84
2023-05-19T00:49:43.359Z,101912.38
2023-05-19T00:52:09.728Z,101910.63
2023-05-19T00:54:36.240Z,101910.97
2023-05-19T00:57:02.663Z,101908.50
2023-05-19T00:59:29.254Z,101906.81
2023-05-19T01:01:55.795Z,101899.72
2023-05-19T01:04:22.232Z,101912.81
2023-05-19T01:06:49.670Z,101912.94
2023-05-19T01:09:16.400Z,101914.84
2023-05-19T01:11:42.834Z,101910.25
2023-05-19T01:14:09.260Z,101906.56
2023-05-19T01:16:36.557Z,101907.13
2023-05-19T01:19:03.804Z,101912.69
2023-05-19T01:21:31.335Z,101901.69
2023-05-19T01:23:57.755Z,101903.19
2023-05-19T01:26:25.884Z,101900.28
2023-05-19T01:28:52.566Z,101902.78
2023-05-19T01:31:19.080Z,101903.47
2023-05-19T01:33:45.590Z,101896.09
2023-05-19T01:36:12.003Z,101899.16
2023-05-19T01:38:38.408Z,101901.03
2023-05-19T01:41:04.886Z,101905.50
2023-05-19T01:43:31.669Z,101903.75
2023-05-19T01:45:58.926Z,101906.28
2023-05-19T01:48:26.050Z,101907.84
2023-05-19T01:50:52.692Z,101907.81
2023-05-19T01:53:19.126Z,101907.66
2023-05-19T01:55:45.830Z,101907.69
2023-05-19T01:58:12.270Z,101899.78
2023-05-19T02:00:38.694Z,101907.00
2023-05-19T02:03:05.159Z,101906.13
2023-05-19T02:05:31.586Z,101907.34
2023-05-19T02:07:57.980Z,101903.97
2023-05-19T02:10:24.393Z,101909.69
2023-05-19T02:12:51.271Z,101909.53
2023-05-19T02:15:17.988Z,101913.03
2023-05-19T02:17:48.190Z,101910.34
2023-05-19T02:20:14.657Z,101899.09
2023-05-19T02:22:41.342Z,101904.38
2023-05-19T02:25:07.765Z,101901.88
2023-05-19T02:27:34.216Z,101900.19
2023-05-19T02:30:02.150Z,101909.81
2023-05-19T02:32:28.629Z,101906.88
2023-05-19T02:34:56.516Z,101904.19
2023-05-19T02:37:28.385Z,101896.53
2023-05-19T02:39:54.944Z,101895.13
2023-05-19T02:42:21.377Z,101889.91
2023-05-19T02:44:47.999Z,101885.75
2023-05-19T02:47:14.510Z,101885.09
2023-05-19T02:49:41.014Z,101881.41
2023-05-19T02:52:07.428Z,101879.56
2023-05-19T02:54:34.069Z,101878.84
2023-05-19T02:57:01.058Z,101878.19
2023-05-19T02:59:27.519Z,101878.63
2023-05-19T03:01:53.946Z,101879.81
2023-05-19T03:04:20.357Z,101887.63
2023-05-19T03:06:46.823Z,101886.38
2023-05-19T03:09:13.772Z,101886.91
2023-05-19T03:11:40.203Z,101887.34
2023-05-19T03:14:06.601Z,101888.31
2023-05-19T03:16:34.060Z,101889.81
2023-05-19T03:19:00.679Z,101887.53
2023-05-19T03:21:27.164Z,101891.09
2023-05-19T03:23:54.702Z,101890.69
2023-05-19T03:26:23.027Z,101885.38
2023-05-19T03:28:49.538Z,101886.81
2023-05-19T03:31:16.413Z,101886.38
2023-05-19T03:33:42.979Z,101887.16
2023-05-19T03:36:09.990Z,101886.53
2023-05-19T03:38:38.666Z,101878.91
2023-05-19T03:41:05.513Z,101880.63
2023-05-19T03:43:31.909Z,101879.16
2023-05-19T03:46:02.505Z,101880.88
2023-05-19T03:48:51.882Z,101886.94
2023-05-19T03:51:37.016Z,101888.56
2023-05-19T03:54:16.902Z,101887.34
2023-05-19T03:56:43.342Z,101889.16
2023-05-19T03:59:12.957Z,101890.34
2023-05-19T04:01:39.411Z,101881.59
2023-05-19T04:04:05.943Z,101880.94
2023-05-19T04:06:32.398Z,101882.41
2023-05-19T04:08:58.753Z,101886.06
2023-05-19T04:11:25.169Z,101894.44
2023-05-19T04:13:51.690Z,101891.81
2023-05-19T04:16:18.157Z,101896.81
2023-05-19T04:18:46.319Z,101898.13
2023-05-19T04:21:12.893Z,101899.53
2023-05-19T04:23:39.359Z,101901.66
2023-05-19T04:26:06.876Z,101896.75
2023-05-19T04:28:36.288Z,101907.38
2023-05-19T04:31:03.464Z,101899.88
2023-05-19T04:33:29.966Z,101894.78
2023-05-19T04:35:58.357Z,101886.50
2023-05-19T04:38:24.942Z,101897.31
2023-05-19T04:40:52.004Z,101892.53
2023-05-19T04:43:19.302Z,101897.16
2023-05-19T04:45:46.547Z,101907.13
2023-05-19T04:48:13.901Z,101901.31
2023-05-19T04:50:42.187Z,101907.66
2023-05-19T04:53:08.763Z,101905.22
2023-05-19T04:55:35.844Z,101902.00
2023-05-19T04:58:02.356Z,101896.75
2023-05-19T05:00:29.652Z,101911.09
2023-05-19T05:03:05.143Z,101902.56
2023-05-19T05:05:32.508Z,101903.44
2023-05-19T05:07:58.950Z,101900.47
2023-05-19T05:10:28.340Z,101900.84
2023-05-19T05:12:54.840Z,101899.63
2023-05-19T05:15:21.352Z,101900.16
2023-05-19T05:17:49.520Z,101899.91
2023-05-19T05:20:16.381Z,101909.72
2023-05-19T05:22:42.852Z,101905.84
2023-05-19T05:25:09.600Z,101894.75
2023-05-19T05:27:36.981Z,101906.53
2023-05-19T05:30:05.306Z,101910.00
2023-05-19T05:32:31.940Z,101907.53
2023-05-19T05:35:00.001Z,101901.94
2023-05-19T05:37:26.601Z,101897.44
2023-05-19T05:39:53.021Z,101902.03
2023-05-19T05:42:20.263Z,101904.31
2023-05-19T05:44:48.703Z,101898.84
2023-05-19T05:47:15.636Z,101896.94
2023-05-19T05:49:42.116Z,101890.94
2023-05-19T05:52:09.638Z,101893.53
2023-05-19T05:54:42.175Z,101892.63
2023-05-19T05:57:09.152Z,101889.81
2023-05-19T05:59:35.620Z,101887.25
2023-05-19T06:02:02.206Z,101889.91
2023-05-19T06:04:28.944Z,101891.38
2023-05-19T06:07:01.008Z,101887.19
2023-05-19T06:09:30.858Z,101885.94
2023-05-19T06:11:58.076Z,101881.88
2023-05-19T06:14:26.975Z,101886.69
2023-05-19T06:17:13.692Z,101885.72
2023-05-19T06:19:40.383Z,101879.41
2023-05-19T06:22:06.992Z,101877.50
2023-05-19T06:24:33.796Z,101873.50
2023-05-19T06:27:00.275Z,101876.28
2023-05-19T06:29:26.823Z,101879.81
2023-05-19T06:31:55.320Z,101876.22
2023-05-19T06:34:21.966Z,101880.59
2023-05-19T06:36:49.449Z,101881.69
2023-05-19T06:39:18.545Z,101878.22
2023-05-19T06:41:45.635Z,101880.75
2023-05-19T06:44:23.805Z,101893.03
2023-05-19T06:46:50.274Z,101893.59
2023-05-19T06:49:16.913Z,101884.31
2023-05-19T06:51:45.688Z,101882.69
2023-05-19T06:54:13.088Z,101878.44
2023-05-19T06:56:41.478Z,101884.50
2023-05-19T06:59:08.172Z,101892.25
2023-05-19T07:01:36.785Z,101879.50
2023-05-19T07:04:03.732Z,101880.28
2023-05-19T07:06:31.317Z,101886.88
2023-05-19T07:08:57.753Z,101874.09
2023-05-19T07:11:24.864Z,101879.81
2023-05-19T07:13:51.324Z,101888.69
2023-05-19T07:16:24.077Z,101879.50
2023-05-19T07:18:50.592Z,101879.50
2023-05-19T07:21:17.047Z,101883.06
2023-05-19T07:23:43.562Z,101873.06
2023-05-19T07:26:11.241Z,101876.34
2023-05-19T07:28:40.687Z,101864.75
2023-05-19T07:31:07.946Z,101875.47
2023-05-19T07:33:34.349Z,101867.66
2023-05-19T07:36:00.743Z,101872.88
2023-05-19T07:38:28.722Z,101866.84
2023-05-19T07:40:55.199Z,101879.44
2023-05-19T07:43:21.601Z,101865.38
2023-05-19T07:45:48.089Z,101870.31
2023-05-19T07:48:14.889Z,101871.53
2023-05-19T07:50:41.342Z,101861.00
2023-05-19T07:53:07.779Z,101859.78
2023-05-19T07:55:34.196Z,101848.38
2023-05-19T07:58:00.579Z,101860.38
2023-05-19T08:00:27.042Z,101857.50
2023-05-19T08:02:53.499Z,101862.81
2023-05-19T08:05:20.000Z,101858.91
2023-05-19T08:07:47.021Z,101852.00
2023-05-19T08:10:13.436Z,101855.97
2023-05-19T08:12:39.878Z,101854.00
2023-05-19T08:15:06.666Z,101845.56
2023-05-19T08:17:33.146Z,101849.78
2023-05-19T08:20:00.365Z,101851.53
2023-05-19T08:22:26.768Z,101844.25
2023-05-19T08:24:53.273Z,101839.63
2023-05-19T08:27:19.693Z,101840.59
2023-05-19T08:29:46.124Z,101842.56
2023-05-19T08:32:13.334Z,101832.00
2023-05-19T08:34:39.955Z,101837.13
2023-05-19T08:37:07.015Z,101833.59
2023-05-19T08:39:34.270Z,101824.66
2023-05-19T08:42:01.305Z,101826.69
2023-05-19T08:44:27.793Z,101824.84
2023-05-19T08:46:54.283Z,101829.47
2023-05-19T08:49:20.902Z,101828.59
2023-05-19T08:51:48.323Z,101818.81
2023-05-19T08:54:14.870Z,101825.91
2023-05-19T08:56:41.463Z,101815.13
2023-05-19T08:59:07.866Z,101809.84
2023-05-19T09:01:34.377Z,101808.97
2023-05-19T09:04:01.014Z,101808.97
2023-05-19T09:06:27.514Z,101811.63
2023-05-19T09:08:54.028Z,101808.84
2023-05-19T09:11:22.779Z,101812.44
2023-05-19T09:13:49.934Z,101803.50
2023-05-19T09:16:17.285Z,101797.44
2023-05-19T09:18:43.795Z,101802.59
2023-05-19T09:21:11.230Z,101802.53
2023-05-19T09:23:37.717Z,101775.00
2023-05-19T09:26:04.447Z,101791.00
2023-05-19T09:28:31.654Z,101785.66
2023-05-19T09:30:58.047Z,101780.38
2023-05-19T09:33:24.544Z,101785.78
2023-05-19T09:35:51.270Z,101797.31
2023-05-19T09:38:17.638Z,101785.78
2023-05-19T09:40:44.052Z,101785.84
2023-05-19T09:43:10.873Z,101789.31
2023-05-19T09:45:37.254Z,101790.19
2023-05-19T09:48:04.409Z,101783.13
2023-05-19T09:50:31.051Z,101773.28
2023-05-19T09:52:57.887Z,101775.94
2023-05-19T09:55:25.593Z,101769.72
2023-05-19T09:57:52.882Z,101770.59
2023-05-19T10:00:19.552Z,101765.25
2023-05-19T10:02:46.060Z,101759.03
2023-05-19T10:05:12.573Z,101757.19
2023-05-19T10:07:40.402Z,101767.06
2023-05-19T10:10:08.290Z,101760.78
2023-05-19T10:12:34.664Z,101755.34
2023-05-19T10:15:01.183Z,101762.59
2023-05-19T10:17:28.420Z,101773.28
2023-05-19T10:19:55.112Z,101774.22
2023-05-19T10:22:22.294Z,101770.59
2023-05-19T10:24:48.767Z,101768.78
2023-05-19T10:27:15.324Z,101753.63
2023-05-19T10:29:42.295Z,101757.22
2023-05-19T10:32:09.031Z,101757.19
2023-05-19T10:34:37.422Z,101762.59
2023-05-19T10:37:03.846Z,101754.50
2023-05-19T10:39:30.291Z,101748.22
2023-05-19T10:41:56.868Z,101739.28
2023-05-19T10:44:23.284Z,101753.63
2023-05-19T10:46:50.593Z,101749.16
2023-05-19T10:49:17.081Z,101759.91
2023-05-19T10:51:43.499Z,101754.53
2023-05-19T10:54:11.527Z,101754.53
2023-05-19T10:56:41.933Z,101749.19
2023-05-19T10:59:08.350Z,101735.78
2023-05-19T11:01:34.954Z,101736.66
2023-05-19T11:04:01.604Z,101740.13
2023-05-19T11:06:28.160Z,101742.00
2023-05-19T11:08:54.636Z,101730.38
2023-05-19T11:13:49.581Z,101737.47
2023-05-19T11:16:16.107Z,101728.53
2023-05-19T11:18:42.590Z,101728.41
2023-05-19T11:21:09.071Z,101717.66
2023-05-19T11:23:35.909Z,101732.06
2023-05-19T11:26:02.336Z,101736.53
2023-05-19T11:28:29.764Z,101735.59
2023-05-19T11:30:57.596Z,101723.78
2023-05-19T11:33:27.598Z,101719.56
2023-05-19T11:35:54.261Z,101733.81
2023-05-19T11:38:20.740Z,101725.81
2023-05-19T11:40:47.743Z,101730.28
2023-05-19T11:43:14.171Z,101729.34
2023-05-19T11:45:40.636Z,101723.03
2023-05-19T11:48:07.168Z,101718.38
2023-05-19T11:50:33.662Z,101726.63
2023-05-19T11:53:00.068Z,101721.25
2023-05-19T11:55:26.979Z,101707.69
2023-05-19T11:58:02.821Z,101714.78
2023-05-19T12:00:30.465Z,101702.25
2023-05-19T12:02:56.931Z,101699.13
2023-05-19T12:05:23.573Z,101706.63
2023-05-19T12:11:18.896Z,101692.25
2023-05-19T12:13:46.462Z,101688.22
2023-05-19T12:16:12.882Z,101682.19
2023-05-19T12:18:39.329Z,101683.34
2023-05-19T12:21:05.836Z,101682.50
2023-05-19T12:23:32.233Z,101679.81
2023-05-19T12:25:58.750Z,101685.16
2023-05-19T12:28:25.228Z,101677.00
2023-05-19T12:30:52.320Z,101682.34
2023-05-19T12:33:19.568Z,101690.44
2023-05-19T12:35:46.276Z,101681.94
2023-05-19T12:38:12.734Z,101675.69
2023-05-19T12:40:42.150Z,101665.53
2023-05-19T12:43:09.681Z,101664.34
2023-05-19T12:45:36.805Z,101663.63
2023-05-19T12:48:03.364Z,101658.13
2023-05-19T12:50:29.795Z,101660.88
2023-05-19T12:52:56.490Z,101665.19
2023-05-19T12:55:23.214Z,101663.31
2023-05-19T12:57:50.739Z,101653.09
2023-05-19T13:00:17.758Z,101651.50
2023-05-19T13:02:44.310Z,101639.06
2023-05-19T13:05:10.841Z,101644.34
2023-05-19T13:07:37.210Z,101650.13
2023-05-19T13:10:03.915Z,101640.34
2023-05-19T13:12:30.403Z,101652.56
2023-05-19T13:14:56.856Z,101653.75
2023-05-19T13:17:23.545Z,101650.19
2023-05-19T13:19:50.071Z,101649.06
2023-05-19T13:22:16.550Z,101648.28
2023-05-19T13:24:43.043Z,101636.50
2023-05-19T13:27:09.577Z,101633.41
2023-05-19T13:29:36.051Z,101638.72
2023-05-19T13:32:02.522Z,101627.09
2023-05-19T13:34:28.983Z,101636.28
2023-05-19T13:36:55.604Z,101632.03
2023-05-19T13:39:22.016Z,101613.53
2023-05-19T13:41:48.412Z,101632.00
2023-05-19T13:44:14.782Z,101622.81
2023-05-19T13:46:45.560Z,101633.38
2023-05-19T13:49:13.345Z,101632.03
2023-05-19T13:51:39.947Z,101645.47
2023-05-19T13:54:06.377Z,101620.28
2023-05-19T13:56:32.778Z,101628.75
2023-05-19T13:58:59.317Z,101622.03
2023-05-19T14:01:25.860Z,101629.13
2023-05-19T14:03:52.566Z,101615.00
2023-05-19T14:06:19.607Z,101612.31
2023-05-19T14:08:45.991Z,101616.66
2023-05-19T14:11:12.525Z,101609.63
2023-05-19T14:13:42.611Z,101607.44
2023-05-19T14:16:09.883Z,101604.78
2023-05-19T14:18:36.387Z,101600.28
2023-05-19T14:21:02.871Z,101599.41
2023-05-19T14:23:30.303Z,101593.34
2023-05-19T14:25:56.804Z,101609.25
2023-05-19T14:28:23.236Z,101593.56
2023-05-19T14:30:50.397Z,101597.28
2023-05-19T14:33:17.027Z,101606.84
2023-05-19T14:35:43.417Z,101602.81
2023-05-19T14:38:09.829Z,101610.44
2023-05-19T14:40:36.327Z,101604.34
2023-05-19T14:43:02.776Z,101599.66
2023-05-19T14:45:29.208Z,101600.38
2023-05-19T14:47:55.825Z,101601.13
2023-05-19T14:50:22.354Z,101604.56
2023-05-19T14:52:48.769Z,101597.34
2023-05-19T14:55:15.345Z,101603.13
2023-05-19T14:57:41.784Z,101588.41
2023-05-19T15:00:10.159Z,101585.50
2023-05-19T15:02:36.696Z,101597.22
2023-05-19T15:05:03.141Z,101597.16
2023-05-19T15:07:29.592Z,101596.91
2023-05-19T15:09:56.222Z,101594.03
2023-05-19T15:12:22.708Z,101579.59
2023-05-19T15:14:49.116Z,101591.31
2023-05-19T15:19:42.841Z,101584.97
2023-05-19T15:22:09.357Z,101583.94
2023-05-19T15:24:35.909Z,101581.69
2023-05-19T15:27:02.303Z,101580.09
2023-05-19T15:29:28.729Z,101574.63
2023-05-19T15:31:55.996Z,101569.72
2023-05-19T15:34:22.416Z,101571.28
2023-05-19T15:36:48.825Z,101571.19
2023-05-19T15:39:15.285Z,101560.53
2023-05-19T15:41:41.708Z,101587.34
2023-05-19T15:44:08.163Z,101571.91
2023-05-19T15:46:34.794Z,101570.41
2023-05-19T15:49:01.222Z,101563.81
2023-05-19T15:51:27.661Z,101551.38
2023-05-19T15:53:54.252Z,101561.34
2023-05-19T15:56:21.545Z,101559.59
2023-05-19T15:58:48.016Z,101564.94
2023-05-19T16:01:14.457Z,101565.78
2023-05-19T16:03:40.998Z,101551.28
2023-05-19T16:06:07.476Z,101557.28
2023-05-19T16:08:33.936Z,101552.91
2023-05-19T16:11:00.458Z,101557.53
2023-05-19T16:13:26.888Z,101549.03
2023-05-19T16:15:53.343Z,101564.22
2023-05-19T16:18:19.813Z,101548.28
2023-05-19T16:20:46.222Z,101548.97
2023-05-19T16:23:12.619Z,101537.91
2023-05-19T16:25:39.021Z,101546.75
2023-05-19T16:28:05.662Z,101546.28
2023-05-19T16:30:32.819Z,101548.28
2023-05-19T16:32:59.387Z,101531.97
2023-05-19T16:35:27.831Z,101539.13
2023-05-19T16:37:54.327Z,101538.22
2023-05-19T16:40:20.972Z,101544.81
2023-05-19T16:42:47.378Z,101552.22
2023-05-19T16:45:13.792Z,101532.78
2023-05-19T16:47:40.270Z,101549.72
2023-05-19T16:50:06.783Z,101528.16
2023-05-19T16:52:33.256Z,101523.44
2023-05-19T16:54:59.632Z,101532.28
2023-05-19T16:57:26.063Z,101533.56
2023-05-19T16:59:52.474Z,101530.88
2023-05-19T17:02:18.976Z,101527.22
2023-05-19T17:04:45.466Z,101523.41
2023-05-19T17:07:11.904Z,101524.84
2023-05-19T17:09:38.305Z,101528.09
2023-05-19T17:12:04.732Z,101530.19
2023-05-19T17:14:31.140Z,101528.47
2023-05-19T17:16:57.641Z,101527.88
2023-05-19T17:19:24.202Z,101523.06
2023-05-19T17:21:50.695Z,101529.22
2023-05-19T17:24:17.114Z,101524.94
2023-05-19T17:26:43.543Z,101531.25
2023-05-19T17:29:09.927Z,101529.50
2023-05-19T17:31:36.440Z,101527.50
2023-05-19T17:34:02.873Z,101530.88
2023-05-19T17:36:29.327Z,101528.31
2023-05-19T17:38:55.899Z,101530.47
2023-05-19T17:41:22.744Z,101539.03
2023-05-19T17:43:49.220Z,101532.91
2023-05-19T17:46:15.622Z,101536.38
2023-05-19T17:48:42.145Z,101536.00
2023-05-19T17:51:08.646Z,101545.47
2023-05-19T17:53:35.031Z,101539.13
2023-05-19T17:56:01.489Z,101539.66
2023-05-19T17:58:27.921Z,101536.25
2023-05-19T18:00:54.367Z,101556.22
2023-05-19T18:03:21.186Z,101554.47
2023-05-19T18:05:47.735Z,101542.28
2023-05-19T18:08:14.832Z,101552.13
2023-05-19T18:10:41.308Z,101543.47
2023-05-19T18:13:07.770Z,101542.22
2023-05-19T18:15:34.181Z,101545.25
2023-05-19T18:18:00.643Z,101549.16
2023-05-19T18:20:27.110Z,101546.47
2023-05-19T18:22:53.542Z,101549.22
2023-05-19T18:25:20.849Z,101542.91
2023-05-19T18:27:47.524Z,101551.00
2023-05-19T18:30:13.972Z,101554.66
2023-05-19T18:32:40.649Z,101548.66
2023-05-19T18:35:07.074Z,101550.34
2023-05-19T18:37:33.487Z,101561.28
2023-05-19T18:39:59.881Z,101554.19
2023-05-19T18:42:26.304Z,101561.56
2023-05-19T18:44:52.693Z,101562.34
2023-05-19T18:47:19.762Z,101568.09
2023-05-19T18:49:46.177Z,101560.28
2023-05-19T18:52:12.682Z,101563.84
2023-05-19T18:54:40.575Z,101571.06
2023-05-19T18:57:07.050Z,101567.09
2023-05-19T18:59:33.527Z,101568.31
2023-05-19T19:01:59.935Z,101565.00
2023-05-19T19:04:26.505Z,101568.50
2023-05-19T19:06:53.341Z,101580.16
2023-05-19T19:09:19.731Z,101573.19
2023-05-19T19:11:46.196Z,101585.00
2023-05-19T19:14:12.593Z,101578.78
2023-05-19T19:16:39.103Z,101581.44
2023-05-19T19:19:05.606Z,101577.97
2023-05-19T19:21:32.095Z,101578.91
2023-05-19T19:23:58.576Z,101586.03
2023-05-19T19:26:26.814Z,101586.97
2023-05-19T19:28:53.346Z,101586.19
2023-05-19T19:31:19.793Z,101598.88
2023-05-19T19:33:46.449Z,101589.09
2023-05-19T19:36:12.854Z,101598.94
2023-05-19T19:38:39.244Z,101597.97
2023-05-19T19:41:05.688Z,101597.88
2023-05-19T19:43:32.055Z,101601.50
2023-05-19T19:45:59.813Z,101603.41
2023-05-19T19:48:26.654Z,101600.78
2023-05-19T19:50:53.522Z,101611.41
2023-05-19T19:53:19.947Z,101617.81
2023-05-19T19:55:46.406Z,101606.13
2023-05-19T19:58:12.874Z,101612.34
2023-05-19T20:00:39.274Z,101614.09
2023-05-19T20:03:06.178Z,101604.31
2023-05-19T20:05:32.812Z,101619.53
2023-05-19T20:07:59.286Z,101624.88
2023-05-19T20:10:25.803Z,101617.81
2023-05-19T20:12:52.410Z,101622.25
2023-05-19T20:15:18.856Z,101625.88
2023-05-19T20:17:45.867Z,101634.75
2023-05-19T20:20:12.385Z,101618.69
2023-05-19T20:22:38.754Z,101629.44
2023-05-19T20:25:05.206Z,101628.53
2023-05-19T20:27:31.629Z,101630.34
2023-05-19T20:29:58.025Z,101630.34
2023-05-19T20:32:24.476Z,101631.28
2023-05-19T20:34:51.246Z,101631.25
2023-05-19T20:37:17.714Z,101636.63
2023-05-19T20:39:44.202Z,101631.25
2023-05-19T20:42:11.227Z,101634.81
2023-05-19T20:44:37.663Z,101633.94
2023-05-19T20:47:04.312Z,101633.94
2023-05-19T20:49:30.798Z,101638.44
2023-05-19T20:51:57.246Z,101641.09
2023-05-19T20:54:23.749Z,101640.19
2023-05-19T20:56:50.170Z,101641.97
2023-05-19T20:59:16.611Z,101647.31
2023-05-19T21:01:43.055Z,101643.78
2023-05-19T21:04:09.559Z,101645.56
2023-05-19T21:06:36.306Z,101647.31
2023-05-19T21:09:05.134Z,101643.78
2023-05-19T21:11:31.649Z,101643.78
2023-05-19T21:13:58.135Z,101646.44
2023-05-19T21:16:24.546Z,101650.00
2023-05-19T21:18:51.124Z,101648.25
2023-05-19T21:21:17.735Z,101643.78
2023-05-19T21:23:44.156Z,101645.56
2023-05-19T21:26:10.590Z,101652.69
2023-05-19T21:28:37.043Z,101650.00
2023-05-19T21:31:05.443Z,101650.03
2023-05-19T21:33:31.948Z,101651.78
2023-05-19T21:35:59.594Z,101650.88
2023-05-19T21:38:26.319Z,101642.81
2023-05-19T21:40:52.937Z,101649.97
2023-05-19T21:43:19.600Z,101656.16
2023-05-19T21:45:46.057Z,101651.69
2023-05-19T21:48:12.577Z,101656.22
2023-05-19T21:50:39.240Z,101653.47
2023-05-19T21:56:39.661Z,101663.28
2023-05-19T21:59:06.121Z,101657.94
2023-05-19T22:01:32.865Z,101661.56
2023-05-19T22:03:59.402Z,101658.78
2023-05-19T22:06:26.389Z,101662.41
2023-05-19T22:08:52.912Z,101651.69
2023-05-19T22:11:19.446Z,101657.94
2023-05-19T22:13:45.914Z,101651.75
2023-05-19T22:16:12.426Z,101656.16
2023-05-19T22:18:38.938Z,101655.22
2023-05-19T22:21:05.521Z,101654.31
2023-05-19T22:23:32.280Z,101657.06
2023-05-19T22:25:58.772Z,101648.94
2023-05-19T22:28:25.546Z,101656.13
2023-05-19T22:30:52.011Z,101656.16
2023-05-19T22:33:18.609Z,101655.13
2023-05-19T22:35:45.126Z,101656.16
2023-05-19T22:38:11.888Z,101664.19
2023-05-19T22:40:38.635Z,101657.03
2023-05-19T22:43:05.025Z,101656.13
2023-05-19T22:45:31.645Z,101656.91
2023-05-19T22:47:58.422Z,101656.06
2023-05-19T22:50:25.052Z,101650.75
2023-05-19T22:52:51.600Z,101644.50
2023-05-19T22:55:18.026Z,101652.50
2023-05-19T22:57:44.545Z,101655.97
2023-05-19T23:00:14.032Z,101650.63
2023-05-19T23:02:40.931Z,101653.38
2023-05-19T23:05:07.448Z,101641.78
2023-05-19T23:07:33.944Z,101641.69
2023-05-19T23:10:00.475Z,101643.50
2023-05-19T23:12:27.192Z,101647.03
2023-05-19T23:14:53.951Z,101644.34
2023-05-19T23:17:20.396Z,101641.63
2023-05-19T23:19:46.841Z,101643.41
2023-05-19T23:22:13.362Z,101641.56
2023-05-19T23:24:40.063Z,101645.13
2023-05-19T23:27:06.803Z,101644.22
2023-05-19T23:29:33.382Z,101642.41
2023-05-19T23:32:00.338Z,101642.34
2023-05-19T23:34:26.744Z,101646.66
2023-05-19T23:36:53.874Z,101640.44
2023-05-19T23:39:22.376Z,101643.25
2023-05-19T23:41:49.046Z,101631.63
2023-05-19T23:44:15.657Z,101642.25
2023-05-19T23:46:42.244Z,101631.53
2023-05-19T23:49:08.748Z,101639.44
2023-05-19T23:51:35.520Z,101640.41
2023-05-19T23:54:02.035Z,101636.06
2023-05-19T23:56:28.722Z,101640.44
2023-05-19T23:58:55.319Z,101637.63
